Time;durP1;ratioP1;P1;durP2;ratioP2;P2;SDS_P1;SDS_P2;PMS_P1;PMS_P2;Temp;Humidity;BMP_temperature;BMP_pressure;BME280_temperature;BME280_humidity;BME280_pressure;Samples;Min_cycle;Max_cycle;Signal;HPM_P1;HPM_P2
2022/04/29 00:00:26;;;;;;;1999.90;999.90;;;12.30;99.90;;;;;;5014694;28;20238;-74
2022/04/29 00:02:52;;;;;;;1999.90;999.90;;;12.30;99.90;;;;;;5014707;28;20174;-74
2022/04/29 00:05:19;;;;;;;1999.90;999.90;;;12.30;99.90;;;;;;5014411;28;20855;-74
2022/04/29 00:07:45;;;;;;;1999.90;999.90;;;12.40;99.90;;;;;;5014453;28;20512;-73
2022/04/29 00:10:13;;;;;;;1999.90;999.90;;;12.40;99.90;;;;;;5014521;28;20487;-74
2022/04/29 00:12:43;;;;;;;1999.90;999.90;;;12.40;99.90;;;;;;5014522;28;20170;-73
2022/04/29 00:15:12;;;;;;;1999.90;999.90;;;12.20;99.90;;;;;;5014370;28;20405;-74
2022/04/29 00:17:38;;;;;;;1999.90;999.90;;;12.20;99.90;;;;;;5014382;28;20420;-74
2022/04/29 00:20:05;;;;;;;1999.90;999.90;;;12.10;99.90;;;;;;5014242;28;20408;-74
2022/04/29 00:25:01;;;;;;;1999.90;999.90;;;12.20;99.90;;;;;;4992965;28;20598;-67
2022/04/29 00:27:26;;;;;;;1999.90;999.90;;;12.10;99.90;;;;;;4994842;28;20506;-67
2022/04/29 00:29:52;;;;;;;1999.90;999.90;;;12.10;99.90;;;;;;4994709;28;20954;-67
2022/04/29 00:32:18;;;;;;;1999.90;999.90;;;12.10;99.90;;;;;;4994647;28;20677;-67
2022/04/29 00:34:43;;;;;;;1999.90;999.90;;;12.10;99.90;;;;;;4994159;28;20193;-67
2022/04/29 00:37:10;;;;;;;1999.90;999.90;;;12.00;99.90;;;;;;4994592;28;20228;-67
2022/04/29 00:39:36;;;;;;;1999.90;999.90;;;12.00;99.90;;;;;;4994423;28;20639;-67
2022/04/29 00:42:10;;;;;;;1999.90;999.90;;;12.00;99.90;;;;;;4994257;28;20453;-67
2022/04/29 00:44:39;;;;;;;1999.90;999.90;;;12.00;99.90;;;;;;4994063;28;20424;-67
2022/04/29 00:47:08;;;;;;;1999.90;999.90;;;12.10;99.90;;;;;;4994363;28;20920;-67
2022/04/29 00:49:34;;;;;;;1999.90;999.90;;;12.10;99.90;;;;;;4994259;28;20412;-67
2022/04/29 00:52:00;;;;;;;1999.90;999.90;;;12.10;99.90;;;;;;4994235;28;20412;-67
2022/04/29 00:54:32;;;;;;;1999.90;999.90;;;12.20;99.90;;;;;;4993978;28;20435;-67
2022/04/29 00:56:59;;;;;;;1999.90;999.90;;;12.20;99.90;;;;;;4994163;28;20484;-67
2022/04/29 00:59:33;;;;;;;1999.90;999.90;;;12.20;99.90;;;;;;4994167;28;20407;-67
2022/04/29 01:02:02;;;;;;;1999.90;999.90;;;12.10;99.90;;;;;;4993951;28;20540;-67
2022/04/29 01:04:32;;;;;;;1999.90;999.90;;;12.20;99.90;;;;;;4993444;28;20425;-67
2022/04/29 01:06:58;;;;;;;1999.90;999.90;;;12.10;99.90;;;;;;4994243;28;20451;-67
2022/04/29 01:09:24;;;;;;;1999.90;999.90;;;12.10;99.90;;;;;;4994021;28;20405;-67
2022/04/29 01:11:51;;;;;;;1999.90;999.90;;;12.10;99.90;;;;;;4993870;28;20170;-67
2022/04/29 01:14:17;;;;;;;1999.90;999.90;;;12.10;99.90;;;;;;4993447;28;20191;-67
2022/04/29 01:16:43;;;;;;;1999.90;999.90;;;12.10;99.90;;;;;;4993763;28;20500;-67
2022/04/29 01:19:08;;;;;;;1999.90;999.90;;;12.10;99.90;;;;;;4993723;28;20484;-67
2022/04/29 01:21:34;;;;;;;1999.90;999.90;;;12.00;99.90;;;;;;4993621;28;20204;-67
2022/04/29 01:23:59;;;;;;;1999.90;999.90;;;11.90;99.90;;;;;;4993242;28;20252;-67
2022/04/29 01:26:25;;;;;;;1999.90;999.90;;;11.80;99.90;;;;;;4993518;28;20174;-67
2022/04/29 01:28:52;;;;;;;1999.90;999.90;;;11.80;99.90;;;;;;4993412;28;20177;-67
2022/04/29 01:31:22;;;;;;;1999.90;999.90;;;11.70;99.90;;;;;;4993414;28;20173;-67
2022/04/29 01:33:49;;;;;;;1999.90;999.90;;;11.80;99.90;;;;;;4993298;28;20937;-67
2022/04/29 01:36:15;;;;;;;1999.90;999.90;;;11.80;99.90;;;;;;4993032;28;20413;-67
2022/04/29 01:38:41;;;;;;;1999.90;999.90;;;11.90;99.90;;;;;;4993272;28;20418;-67
2022/04/29 01:41:07;;;;;;;1999.90;999.90;;;11.80;99.90;;;;;;4993274;28;20288;-67
2022/04/29 01:43:34;;;;;;;1999.90;999.90;;;11.80;99.90;;;;;;4993269;28;20822;-67
2022/04/29 01:46:01;;;;;;;1999.90;999.90;;;11.80;99.90;;;;;;4992988;28;20420;-67
2022/04/29 01:48:27;;;;;;;1999.90;999.90;;;11.80;99.90;;;;;;4993331;28;20856;-67
2022/04/29 01:50:53;;;;;;;1999.90;999.90;;;11.80;99.90;;;;;;4993188;28;20435;-67
2022/04/29 01:53:19;;;;;;;1999.90;999.90;;;11.80;99.90;;;;;;4993082;28;20429;-67
2022/04/29 01:55:44;;;;;;;1999.90;999.90;;;11.70;99.90;;;;;;4992846;28;20590;-67
2022/04/29 01:58:10;;;;;;;1999.90;999.90;;;11.70;99.90;;;;;;4992897;28;20412;-67
2022/04/29 02:00:36;;;;;;;1999.90;999.90;;;11.60;99.90;;;;;;4992954;28;20229;-67
2022/04/29 02:03:02;;;;;;;1999.90;999.90;;;11.60;99.90;;;;;;4992863;28;20202;-67
2022/04/29 02:05:27;;;;;;;1999.90;999.90;;;11.60;99.90;;;;;;4992608;28;20402;-67
2022/04/29 02:07:53;;;;;;;1999.90;999.90;;;11.60;99.90;;;;;;4992966;28;20553;-67
2022/04/29 02:10:20;;;;;;;1999.90;999.90;;;11.60;99.90;;;;;;4992877;28;20166;-67
2022/04/29 02:12:46;;;;;;;1999.90;999.90;;;11.60;99.90;;;;;;4992691;28;20301;-67
2022/04/29 02:15:12;;;;;;;1999.90;999.90;;;11.60;99.90;;;;;;4991956;28;20420;-67
2022/04/29 02:17:38;;;;;;;1999.90;999.90;;;11.50;99.90;;;;;;4992814;28;20459;-67
2022/04/29 02:20:04;;;;;;;1999.90;999.90;;;11.50;99.90;;;;;;4992721;28;20408;-67
2022/04/29 02:22:30;;;;;;;1999.90;999.90;;;11.40;99.90;;;;;;4992613;28;20644;-67
2022/04/29 02:24:57;;;;;;;1999.90;999.90;;;11.40;99.90;;;;;;4992276;28;20520;-67
2022/04/29 02:27:23;;;;;;;1999.90;999.90;;;11.40;99.90;;;;;;4992684;28;20252;-67
2022/04/29 02:29:48;;;;;;;1999.90;999.90;;;11.40;99.90;;;;;;4992792;28;20437;-67
2022/04/29 02:32:14;;;;;;;1999.90;999.90;;;11.40;99.90;;;;;;4992608;28;20248;-67
2022/04/29 02:34:41;;;;;;;1999.90;999.90;;;11.40;99.90;;;;;;4992374;28;20190;-67
2022/04/29 02:37:07;;;;;;;1999.90;999.90;;;11.30;99.90;;;;;;4992566;28;20405;-67
2022/04/29 02:39:33;;;;;;;1999.90;999.90;;;11.30;99.90;;;;;;4992544;28;20423;-67
2022/04/29 02:41:58;;;;;;;1999.90;999.90;;;11.30;99.90;;;;;;4992403;28;20201;-67
2022/04/29 02:44:24;;;;;;;1999.90;999.90;;;11.20;99.90;;;;;;4992221;28;20686;-67
2022/04/29 02:47:08;;;;;;;1999.90;999.90;;;11.30;99.90;;;;;;4992547;28;20249;-67
2022/04/29 02:49:41;;;;;;;1999.90;999.90;;;11.30;99.90;;;;;;4992582;28;20535;-67
2022/04/29 02:52:08;;;;;;;1999.90;999.90;;;11.30;99.90;;;;;;4992477;28;20440;-67
2022/04/29 02:54:34;;;;;;;1999.90;999.90;;;11.20;99.90;;;;;;4992028;28;20579;-67
2022/04/29 02:57:00;;;;;;;1999.90;999.90;;;11.20;99.90;;;;;;4992429;28;20899;-67
2022/04/29 02:59:26;;;;;;;1999.90;999.90;;;11.10;99.90;;;;;;4992404;28;20416;-67
2022/04/29 03:01:52;;;;;;;1999.90;999.90;;;11.10;99.90;;;;;;4992325;28;20209;-67
2022/04/29 03:04:18;;;;;;;1999.90;999.90;;;11.20;99.90;;;;;;4991910;28;20224;-67
2022/04/29 03:06:43;;;;;;;1999.90;999.90;;;11.20;99.90;;;;;;4992323;28;20401;-67
2022/04/29 03:09:09;;;;;;;1999.90;999.90;;;11.10;99.90;;;;;;4992144;28;20199;-67
2022/04/29 03:11:35;;;;;;;1999.90;999.90;;;11.10;99.90;;;;;;4992311;28;20178;-67
2022/04/29 03:14:01;;;;;;;1999.90;999.90;;;11.10;99.90;;;;;;4991970;28;20435;-67
2022/04/29 03:16:26;;;;;;;1999.90;999.90;;;11.00;99.90;;;;;;4992277;28;20213;-67
2022/04/29 03:18:52;;;;;;;1999.90;999.90;;;11.10;99.90;;;;;;4992182;28;20208;-67
2022/04/29 03:21:20;;;;;;;1999.90;999.90;;;11.00;99.90;;;;;;4992131;28;20304;-67
2022/04/29 03:23:46;;;;;;;1999.90;999.90;;;11.00;99.90;;;;;;4991939;28;20670;-67
2022/04/29 03:26:12;;;;;;;1999.90;999.90;;;11.00;99.90;;;;;;4992119;28;20405;-67
2022/04/29 03:28:38;;;;;;;1999.90;999.90;;;11.00;99.90;;;;;;4995781;28;20408;-67
2022/04/29 03:31:04;;;;;;;1999.90;999.90;;;11.10;99.90;;;;;;4995930;28;20208;-67
2022/04/29 03:33:30;;;;;;;1999.90;999.90;;;11.00;99.90;;;;;;4995685;28;20233;-67
2022/04/29 03:35:55;;;;;;;1999.90;999.90;;;11.00;99.90;;;;;;4995391;28;20956;-67
2022/04/29 03:38:22;;;;;;;1999.90;999.90;;;11.00;99.90;;;;;;4995602;28;20192;-67
2022/04/29 03:40:48;;;;;;;1999.90;999.90;;;11.00;99.90;;;;;;4995518;28;20196;-67
2022/04/29 03:43:13;;;;;;;1999.90;999.90;;;11.00;99.90;;;;;;4996029;28;20453;-67
2022/04/29 03:45:40;;;;;;;1999.90;999.90;;;10.90;99.90;;;;;;4995874;28;20264;-67
2022/04/29 03:48:06;;;;;;;1999.90;999.90;;;10.90;99.90;;;;;;4996015;28;20593;-67
2022/04/29 03:50:32;;;;;;;1999.90;999.90;;;10.80;99.90;;;;;;4995920;28;20490;-66
2022/04/29 03:53:00;;;;;;;1999.90;999.90;;;10.80;99.90;;;;;;4995722;28;20536;-67
2022/04/29 03:55:28;;;;;;;1999.90;999.90;;;10.80;99.90;;;;;;4995511;28;20409;-67
2022/04/29 03:57:54;;;;;;;1999.90;999.90;;;10.80;99.90;;;;;;4996075;28;20782;-67
2022/04/29 04:00:21;;;;;;;1999.90;999.90;;;10.70;99.90;;;;;;4995654;28;20423;-67
2022/04/29 04:02:47;;;;;;;1999.90;999.90;;;10.70;99.90;;;;;;4995649;28;20924;-67
2022/04/29 04:05:13;;;;;;;1999.90;999.90;;;10.70;99.90;;;;;;4995378;28;20405;-67
2022/04/29 04:07:39;;;;;;;1999.90;999.90;;;10.70;99.90;;;;;;4995619;28;20599;-67
2022/04/29 04:10:06;;;;;;;1999.90;999.90;;;10.60;99.90;;;;;;4995420;28;20409;-67
2022/04/29 04:12:49;;;;;;;1999.90;999.90;;;10.60;99.90;;;;;;4995425;28;20213;-67
2022/04/29 04:15:20;;;;;;;1999.90;999.90;;;10.60;99.90;;;;;;4995099;28;20835;-67
2022/04/29 04:17:47;;;;;;;1999.90;999.90;;;10.40;99.90;;;;;;4995231;28;20470;-67
2022/04/29 04:20:14;;;;;;;1999.90;999.90;;;10.30;99.90;;;;;;4995075;28;20420;-67
2022/04/29 04:22:39;;;;;;;1999.90;999.90;;;10.20;99.90;;;;;;4994855;28;20433;-66
2022/04/29 04:25:14;;;;;;;1999.90;999.90;;;10.10;99.90;;;;;;4994927;28;20416;-67
2022/04/29 04:27:41;;;;;;;1999.90;999.90;;;10.10;99.90;;;;;;4995372;28;20169;-67
2022/04/29 04:30:08;;;;;;;1999.90;999.90;;;10.10;99.90;;;;;;4995623;28;20412;-67
2022/04/29 04:32:38;;;;;;;1999.90;999.90;;;10.10;99.90;;;;;;4994884;28;20425;-67
2022/04/29 04:35:05;;;;;;;1999.90;999.90;;;10.20;99.90;;;;;;4994684;28;20466;-66
2022/04/29 04:37:31;;;;;;;1999.90;999.90;;;10.20;99.90;;;;;;4994900;28;20421;-67
2022/04/29 04:39:58;;;;;;;1999.90;999.90;;;10.20;99.90;;;;;;4994398;28;20771;-67
2022/04/29 04:42:24;;;;;;;1999.90;999.90;;;10.20;99.90;;;;;;4994785;28;20460;-67
2022/04/29 04:44:51;;;;;;;1999.90;999.90;;;10.20;99.90;;;;;;4994371;28;20424;-67
2022/04/29 04:47:17;;;;;;;1999.90;999.90;;;10.30;99.90;;;;;;4994643;28;20404;-67
2022/04/29 04:49:43;;;;;;;1999.90;999.90;;;10.30;99.90;;;;;;4994754;28;20415;-67
2022/04/29 04:52:09;;;;;;;1999.90;999.90;;;10.40;99.90;;;;;;4994565;28;20413;-67
2022/04/29 04:54:36;;;;;;;1999.90;999.90;;;10.30;99.90;;;;;;4994226;28;20251;-67
2022/04/29 04:57:02;;;;;;;1999.90;999.90;;;10.30;99.90;;;;;;4994505;28;20496;-67
2022/04/29 04:59:28;;;;;;;1999.90;999.90;;;10.30;99.90;;;;;;4994403;28;20421;-67
2022/04/29 05:01:53;;;;;;;1999.90;999.90;;;10.40;99.90;;;;;;4994601;28;20738;-67
2022/04/29 05:04:20;;;;;;;1999.90;999.90;;;10.40;99.90;;;;;;4994045;28;20690;-67
2022/04/29 05:06:45;;;;;;;1999.90;999.90;;;10.50;99.90;;;;;;4994424;28;20176;-67
2022/04/29 05:09:12;;;;;;;1999.90;999.90;;;10.50;99.90;;;;;;4994056;28;20409;-66
2022/04/29 05:11:38;;;;;;;1999.90;999.90;;;10.50;99.90;;;;;;4994135;28;20174;-67
2022/04/29 05:14:03;;;;;;;1999.90;999.90;;;10.40;99.90;;;;;;4993978;28;20980;-67
2022/04/29 05:16:29;;;;;;;1999.90;999.90;;;10.40;99.90;;;;;;4994540;28;20879;-67
2022/04/29 05:18:55;;;;;;;1999.90;999.90;;;10.20;99.90;;;;;;4994451;28;20181;-66
2022/04/29 05:21:20;;;;;;;1999.90;999.90;;;10.20;99.90;;;;;;4993974;28;20205;-67
2022/04/29 05:23:46;;;;;;;1999.90;999.90;;;10.20;99.90;;;;;;4993976;28;20630;-67
2022/04/29 05:26:12;;;;;;;1999.90;999.90;;;10.30;99.90;;;;;;4993951;28;20636;-67
2022/04/29 05:28:37;;;;;;;1999.90;999.90;;;10.30;99.90;;;;;;4994008;28;20204;-67
2022/04/29 05:31:03;;;;;;;1999.90;999.90;;;10.30;99.90;;;;;;4993961;28;20177;-67
2022/04/29 05:33:33;;;;;;;1999.90;999.90;;;10.30;99.90;;;;;;4993838;28;20259;-67
2022/04/29 05:35:59;;;;;;;1999.90;999.90;;;10.30;99.90;;;;;;4993508;28;20451;-67
2022/04/29 05:42:14;;;;;;;1999.90;999.90;;;10.30;99.90;;;;;;4993325;28;20419;-67
2022/04/29 05:43:57;;;;;;;1999.90;999.90;;;10.60;99.90;;;;;;4993359;28;20436;-67
2022/04/29 05:46:22;;;;;;;1999.90;999.90;;;10.70;99.90;;;;;;4993066;28;20416;-67
2022/04/29 05:48:48;;;;;;;1999.90;999.90;;;10.90;99.90;;;;;;4993143;28;20423;-67
2022/04/29 05:51:14;;;;;;;1999.90;999.90;;;11.00;99.90;;;;;;4993124;28;20263;-67
2022/04/29 05:53:39;;;;;;;1999.90;999.90;;;11.10;99.90;;;;;;4993159;28;20196;-67
2022/04/29 05:56:05;;;;;;;1999.90;999.90;;;11.20;99.90;;;;;;4992840;28;20550;-67
2022/04/29 05:58:30;;;;;;;1999.90;999.90;;;11.20;99.90;;;;;;4993025;28;20189;-67
2022/04/29 06:00:58;;;;;;;1999.90;999.90;;;11.40;99.90;;;;;;4993051;28;20198;-67
2022/04/29 06:03:24;;;;;;;1999.90;999.90;;;11.40;99.90;;;;;;4993023;28;20671;-67
2022/04/29 06:05:49;;;;;;;1999.90;999.90;;;11.50;99.90;;;;;;4992639;28;20416;-67
2022/04/29 06:08:15;;;;;;;1999.90;999.90;;;11.60;99.90;;;;;;4993159;28;20413;-67
2022/04/29 06:10:41;;;;;;;1999.90;999.90;;;11.60;99.90;;;;;;4992936;28;20178;-67
2022/04/29 06:13:08;;;;;;;1999.90;999.90;;;11.60;99.90;;;;;;4992847;28;20729;-68
2022/04/29 06:15:34;;;;;;;1999.90;999.90;;;11.60;99.90;;;;;;4992613;28;20212;-67
2022/04/29 06:18:00;;;;;;;1999.90;999.90;;;11.60;99.90;;;;;;4992836;28;20437;-67
2022/04/29 06:20:25;;;;;;;1999.90;999.90;;;11.60;99.90;;;;;;4992644;28;20181;-67
2022/04/29 06:22:54;;;;;;;1999.90;999.90;;;11.70;99.90;;;;;;4993069;28;20195;-67
2022/04/29 06:25:20;;;;;;;1999.90;999.90;;;11.70;99.90;;;;;;4992519;28;20178;-67
2022/04/29 06:27:46;;;;;;;1999.90;999.90;;;11.60;99.90;;;;;;4992807;28;20830;-67
2022/04/29 06:30:12;;;;;;;1999.90;999.90;;;11.60;99.90;;;;;;4992751;28;20496;-67
2022/04/29 06:32:38;;;;;;;1999.90;999.90;;;11.50;99.90;;;;;;4992510;28;20219;-66
2022/04/29 06:35:06;;;;;;;1999.90;999.90;;;11.40;99.90;;;;;;4992255;28;20476;-66
2022/04/29 06:37:35;;;;;;;1999.90;999.90;;;11.20;99.90;;;;;;4992560;28;20180;-67
2022/04/29 06:40:02;;;;;;;1999.90;999.90;;;11.20;99.90;;;;;;4992563;28;20421;-67
2022/04/29 06:42:27;;;;;;;1999.90;999.90;;;11.30;99.90;;;;;;4992417;28;20461;-67
2022/04/29 06:44:53;;;;;;;1999.90;999.90;;;11.40;99.90;;;;;;4992140;28;20550;-67
2022/04/29 06:47:19;;;;;;;1999.90;999.90;;;11.60;99.90;;;;;;4992591;28;20184;-67
2022/04/29 06:49:45;;;;;;;1999.90;999.90;;;11.70;99.90;;;;;;4992427;28;20170;-67
2022/04/29 06:52:11;;;;;;;1999.90;999.90;;;11.90;99.90;;;;;;4992447;28;20171;-67
2022/04/29 06:54:37;;;;;;;1999.90;999.90;;;12.10;99.90;;;;;;4991958;28;20675;-67
2022/04/29 06:57:03;;;;;;;1999.90;999.90;;;12.20;99.90;;;;;;4992696;28;20408;-66
2022/04/29 06:59:28;;;;;;;1999.90;999.90;;;12.30;99.90;;;;;;4992439;28;20176;-66
2022/04/29 07:01:54;;;;;;;1999.90;999.90;;;12.30;99.90;;;;;;4993815;28;20814;-67
2022/04/29 07:04:20;;;;;;;1999.90;999.90;;;12.00;99.90;;;;;;4995775;28;20212;-66
2022/04/29 07:06:46;;;;;;;1999.90;999.90;;;11.90;99.90;;;;;;4996244;28;20249;-67
2022/04/29 07:09:11;;;;;;;1999.90;999.90;;;11.80;99.90;;;;;;4996153;28;20931;-66
2022/04/29 07:11:37;;;;;;;1999.90;999.90;;;11.80;99.90;;;;;;4996139;28;20232;-67
2022/04/29 07:14:02;;;;;;;1999.90;999.90;;;11.90;99.90;;;;;;4995743;28;20285;-67
2022/04/29 07:16:30;;;;;;;1999.90;999.90;;;12.00;99.90;;;;;;4996006;28;20186;-66
2022/04/29 07:18:57;;;;;;;1999.90;999.90;;;12.20;99.90;;;;;;4995868;28;20178;-66
2022/04/29 07:21:23;;;;;;;1999.90;999.90;;;12.40;99.90;;;;;;4995812;28;20449;-67
2022/04/29 07:23:48;;;;;;;1999.90;999.90;;;12.60;99.90;;;;;;4995930;28;20460;-67
2022/04/29 07:26:15;;;;;;;1999.90;999.90;;;12.70;99.90;;;;;;4995620;28;20184;-66
2022/04/29 07:28:41;;;;;;;1999.90;999.90;;;12.70;99.90;;;;;;4995871;28;20288;-67
2022/04/29 07:31:06;;;;;;;1999.90;999.90;;;12.70;99.90;;;;;;4995833;28;20854;-67
2022/04/29 07:33:32;;;;;;;1999.90;999.90;;;12.80;99.90;;;;;;4995542;28;20434;-67
2022/04/29 07:41:44;;;;;;;1999.90;999.90;;;13.30;99.90;;;;;;4995523;28;20998;-66
2022/04/29 07:44:10;;;;;;;1999.90;999.90;;;13.20;99.90;;;;;;4995479;28;20574;-66
2022/04/29 07:46:36;;;;;;;1999.90;999.90;;;13.10;99.90;;;;;;4995652;28;20754;-66
2022/04/29 07:49:03;;;;;;;1999.90;999.90;;;12.90;99.90;;;;;;4995513;28;20796;-66
2022/04/29 07:51:29;;;;;;;1999.90;999.90;;;12.80;99.90;;;;;;4995427;28;20409;-66
2022/04/29 07:53:54;;;;;;;1999.90;999.90;;;12.70;99.90;;;;;;4995357;28;20469;-67
2022/04/29 07:56:20;;;;;;;1999.90;999.90;;;12.70;99.90;;;;;;4995104;28;20228;-67
2022/04/29 07:58:45;;;;;;;1999.90;999.90;;;12.80;99.90;;;;;;4995239;28;20186;-67
2022/04/29 08:01:11;;;;;;;1999.90;999.90;;;13.00;99.90;;;;;;4992971;28;20672;-67
2022/04/29 08:03:37;;;;;;;1999.90;999.90;;;13.10;99.90;;;;;;4994644;28;20196;-67
2022/04/29 08:06:04;;;;;;;1999.90;999.90;;;13.20;99.90;;;;;;4994527;28;20190;-67
2022/04/29 08:08:30;;;;;;;1999.90;999.90;;;13.30;99.90;;;;;;4994607;28;20407;-68
2022/04/29 08:10:55;;;;;;;1999.90;999.90;;;13.40;99.90;;;;;;4994607;28;20461;-67
2022/04/29 08:13:22;;;;;;;1999.90;999.90;;;13.50;99.90;;;;;;4993028;28;20270;-68
2022/04/29 08:15:49;;;;;;;1999.90;999.90;;;13.30;99.90;;;;;;4994489;28;20180;-66
2022/04/29 08:18:16;;;;;;;1999.90;999.90;;;13.20;99.90;;;;;;4990758;28;20485;-68
2022/04/29 08:20:43;;;;;;;1999.90;999.90;;;13.30;99.90;;;;;;4993933;28;20448;-68
2022/04/29 08:23:09;;;;;;;1999.90;999.90;;;13.30;99.90;;;;;;4993808;28;20838;-67
2022/04/29 08:25:35;;;;;;;1999.90;999.90;;;13.30;99.90;;;;;;4993060;28;20406;-67
2022/04/29 08:28:02;;;;;;;1999.90;999.90;;;13.50;99.90;;;;;;4993642;28;20529;-68
2022/04/29 08:30:30;;;;;;;1999.90;999.90;;;13.70;99.90;;;;;;4994520;28;20964;-67
2022/04/29 08:32:57;;;;;;;1999.90;999.90;;;13.80;99.90;;;;;;4994276;28;20835;-67
2022/04/29 08:35:24;;;;;;;1999.90;999.90;;;13.80;99.90;;;;;;4994441;28;20408;-67
2022/04/29 08:37:50;;;;;;;1999.90;999.90;;;13.90;99.90;;;;;;4994615;28;20450;-67
2022/04/29 08:40:16;;;;;;;1999.90;999.90;;;13.80;99.90;;;;;;4994339;28;20409;-67
2022/04/29 08:42:42;;;;;;;1999.90;999.90;;;13.90;99.90;;;;;;4994366;28;20456;-67
2022/04/29 08:45:10;;;;;;;1999.90;999.90;;;13.80;99.90;;;;;;4994087;28;20403;-67
2022/04/29 08:47:38;;;;;;;1999.90;999.90;;;13.80;99.90;;;;;;4994342;28;20414;-67
2022/04/29 08:50:06;;;;;;;1999.90;999.90;;;14.00;99.90;;;;;;4994249;28;20496;-67
2022/04/29 08:52:34;;;;;;;1999.90;999.90;;;13.90;99.90;;;;;;4994148;28;20424;-67
2022/04/29 09:00:30;;;;;;;1999.90;999.90;;;13.70;99.90;;;;;;4994094;28;20420;-67
2022/04/29 09:02:55;;;;;;;1999.90;999.90;;;13.80;99.90;;;;;;4993965;28;20797;-67
2022/04/29 09:05:21;;;;;;;1999.90;999.90;;;13.80;99.90;;;;;;4993655;28;20412;-67
2022/04/29 09:07:53;;;;;;;1999.90;999.90;;;13.90;99.90;;;;;;4993946;28;20168;-67
2022/04/29 09:10:20;;;;;;;1999.90;999.90;;;14.10;99.90;;;;;;4994042;28;20186;-67
2022/04/29 09:12:46;;;;;;;1999.90;999.90;;;14.10;99.90;;;;;;4993727;28;20397;-67
2022/04/29 09:15:13;;;;;;;1999.90;999.90;;;14.30;99.90;;;;;;4993461;28;20421;-67
2022/04/29 09:17:43;;;;;;;1999.90;999.90;;;14.40;99.90;;;;;;4993625;28;20228;-67
2022/04/29 09:20:27;;;;;;;1999.90;999.90;;;14.60;99.90;;;;;;4993897;28;20390;-67
2022/04/29 09:22:52;;;;;;;1999.90;999.90;;;14.80;99.90;;;;;;4993869;28;21003;-67
2022/04/29 09:25:18;;;;;;;1999.90;999.90;;;15.00;99.90;;;;;;4993466;28;20476;-67
2022/04/29 09:27:57;;;;;;;1999.90;999.90;;;15.20;99.90;;;;;;4993851;28;20170;-67
2022/04/29 09:30:40;;;;;;;1999.90;999.90;;;15.40;99.90;;;;;;4993746;28;20411;-67
2022/04/29 09:33:20;;;;;;;1999.90;999.90;;;15.70;99.90;;;;;;4993622;28;20425;-67
2022/04/29 09:35:47;;;;;;;1999.90;999.90;;;16.00;99.90;;;;;;4993622;28;20404;-67
2022/04/29 09:41:00;;;;;;;1999.90;999.90;;;16.40;99.90;;;;;;4993513;28;20535;-67
2022/04/29 09:43:44;;;;;;;1999.90;999.90;;;16.30;99.90;;;;;;4993623;28;20592;-66
2022/04/29 09:46:24;;;;;;;1999.90;999.90;;;16.00;99.90;;;;;;4993401;28;20412;-67
2022/04/29 09:48:53;;;;;;;1999.90;999.90;;;15.80;99.90;;;;;;4993766;28;20413;-66
2022/04/29 09:51:51;;;;;;;1999.90;999.90;;;15.60;99.90;;;;;;4993552;28;20907;-67
2022/04/29 09:54:27;;;;;;;1999.90;999.90;;;15.50;99.90;;;;;;4988206;28;20441;-67
2022/04/29 09:57:10;;;;;;;1999.90;999.90;;;15.50;99.90;;;;;;4993758;28;20908;-66
2022/04/29 09:59:44;;;;;;;1999.90;999.90;;;15.20;99.90;;;;;;4993905;28;20404;-66
2022/04/29 10:02:12;;;;;;;1999.90;999.90;;;15.10;99.90;;;;;;4994067;28;20449;-66
2022/04/29 10:04:40;;;;;;;1999.90;999.90;;;14.90;99.90;;;;;;4993637;28;20431;-66
2022/04/29 10:07:09;;;;;;;1999.90;999.90;;;14.80;99.90;;;;;;4993249;28;20774;-67
2022/04/29 10:09:37;;;;;;;1999.90;999.90;;;14.70;99.90;;;;;;4992916;28;20398;-67
2022/04/29 10:12:13;;;;;;;1999.90;999.90;;;14.70;99.90;;;;;;4992825;28;20449;-67
2022/04/29 10:14:40;;;;;;;1999.90;999.90;;;14.80;99.90;;;;;;4992682;28;20421;-67
2022/04/29 10:22:43;;;;;;;1999.90;999.90;;;15.20;99.90;;;;;;4992442;28;20550;-67
2022/04/29 10:25:10;;;;;;;1999.90;999.90;;;15.10;99.90;;;;;;4992765;28;20864;-67
2022/04/29 10:27:40;;;;;;;1999.90;999.90;;;15.20;99.90;;;;;;4992744;28;20198;-67
2022/04/29 10:30:07;;;;;;;1999.90;999.90;;;15.20;99.90;;;;;;4992606;28;20916;-67
2022/04/29 10:32:59;;;;;;;1999.90;999.90;;;15.30;99.90;;;;;;4992529;28;20473;-67
2022/04/29 10:35:40;;;;;;;1999.90;999.90;;;15.60;99.90;;;;;;4992417;28;20441;-67
2022/04/29 10:38:30;;;;;;;1999.90;999.90;;;15.80;99.90;;;;;;4992146;28;20472;-67
2022/04/29 10:41:13;;;;;;;1999.90;999.90;;;15.80;99.90;;;;;;4992305;28;20534;-67
2022/04/29 10:43:51;;;;;;;1999.90;999.90;;;15.90;99.90;;;;;;4992309;28;20509;-67
2022/04/29 10:46:30;;;;;;;1999.90;999.90;;;16.00;99.90;;;;;;4992377;28;20404;-67
2022/04/29 10:48:56;;;;;;;1999.90;999.90;;;16.20;99.90;;;;;;4992482;28;20445;-67
2022/04/29 10:51:45;;;;;;;1999.90;999.90;;;16.40;99.90;;;;;;4992322;28;20434;-67
2022/04/29 10:54:12;;;;;;;1999.90;999.90;;;16.60;99.90;;;;;;4992088;28;20603;-67
2022/04/29 10:56:38;;;;;;;1999.90;999.90;;;16.90;99.90;;;;;;4992379;28;20451;-67
2022/04/29 10:59:06;;;;;;;1999.90;999.90;;;17.30;99.90;;;;;;4992337;28;20459;-67
2022/04/29 11:01:33;;;;;;;1999.90;999.90;;;17.30;99.90;;;;;;4992304;28;20800;-67
2022/04/29 11:04:00;;;;;;;1999.90;999.90;;;17.60;99.90;;;;;;4992078;28;20448;-67
2022/04/29 11:06:41;;;;;;;1999.90;999.90;;;17.60;99.90;;;;;;4992411;28;20775;-67
2022/04/29 11:09:26;;;;;;;1999.90;999.90;;;17.60;99.90;;;;;;4992108;28;20412;-67
2022/04/29 11:11:53;;;;;;;1999.90;999.90;;;17.80;99.90;;;;;;4992268;28;20407;-67
2022/04/29 11:14:18;;;;;;;1999.90;999.90;;;18.20;99.90;;;;;;4991714;28;20442;-67
2022/04/29 11:17:10;;;;;;;1999.90;999.90;;;18.80;99.90;;;;;;4992190;28;20413;-67
2022/04/29 11:19:40;;;;;;;1999.90;999.90;;;19.30;99.90;;;;;;4992359;28;20174;-67
2022/04/29 11:24:52;;;;;;;1999.90;999.90;;;19.60;99.90;;;;;;4991699;28;20474;-67
2022/04/29 11:27:26;;;;;;;1999.90;999.90;;;19.70;99.90;;;;;;4992073;28;20402;-67
2022/04/29 11:29:53;;;;;;;1999.90;999.90;;;19.80;99.90;;;;;;4992076;28;20443;-67
2022/04/29 11:32:25;;;;;;;1999.90;999.90;;;19.90;99.90;;;;;;4992060;28;20416;-67
2022/04/29 11:34:51;;;;;;;1999.90;999.90;;;19.90;99.90;;;;;;4991603;28;20498;-67
2022/04/29 11:37:27;;;;;;;1999.90;999.90;;;20.00;99.90;;;;;;4991901;28;20413;-67
2022/04/29 11:39:57;;;;;;;1999.90;999.90;;;20.00;99.90;;;;;;4991860;28;20418;-67
2022/04/29 11:42:23;;;;;;;1999.90;999.90;;;20.00;99.90;;;;;;4991879;28;20835;-67
2022/04/29 11:44:51;;;;;;;1999.90;999.90;;;20.20;99.90;;;;;;4987598;28;20428;-67
2022/04/29 11:47:29;;;;;;;1999.90;999.90;;;20.30;99.90;;;;;;4991996;28;20495;-67
2022/04/29 11:49:55;;;;;;;1999.90;999.90;;;20.40;99.90;;;;;;4994892;28;20411;-67
2022/04/29 11:52:23;;;;;;;1999.90;999.90;;;20.40;99.90;;;;;;4994758;28;20407;-67
2022/04/29 11:54:52;;;;;;;1999.90;999.90;;;20.70;99.90;;;;;;4994753;28;20487;-67
2022/04/29 11:57:19;;;;;;;1999.90;999.90;;;21.20;99.90;;;;;;4977990;28;20423;-68
2022/04/29 11:59:45;;;;;;;1999.90;999.90;;;21.60;99.90;;;;;;4974843;28;20407;-67
2022/04/29 12:02:14;;;;;;;1999.90;999.90;;;21.80;99.90;;;;;;4974663;28;20447;-67
2022/04/29 12:04:53;;;;;;;1999.90;999.90;;;22.10;97.90;;;;;;4974848;28;20795;-68
2022/04/29 12:07:18;;;;;;;1999.90;999.90;;;22.00;98.30;;;;;;4975306;28;20852;-68
2022/04/29 12:09:44;;;;;;;1999.90;999.90;;;22.10;96.10;;;;;;4975033;28;20495;-67
2022/04/29 12:12:30;;;;;;;1999.90;999.90;;;21.80;94.30;;;;;;4975083;28;20429;-67
2022/04/29 12:14:58;;;;;;;1999.90;999.90;;;21.10;97.30;;;;;;4974554;28;20179;-68
2022/04/29 12:17:34;;;;;;;1999.90;999.90;;;21.00;96.10;;;;;;4975177;28;20414;-68
2022/04/29 12:20:00;;;;;;;1999.90;999.90;;;21.00;94.30;;;;;;4974499;28;20388;-69
2022/04/29 12:22:36;;;;;;;1999.90;999.90;;;21.00;95.00;;;;;;4974680;28;20466;-68
2022/04/29 12:25:26;;;;;;;1999.90;999.90;;;20.90;94.50;;;;;;5030092;22;20939;-71
2022/04/29 12:28:19;;;;;;;1999.90;999.90;;;20.80;94.80;;;;;;5072795;28;20380;-72
2022/04/29 12:36:44;;;;;;;1999.90;999.90;;;20.10;96.50;;;;;;5072836;28;20428;-72